Flight Track Log - Related Links

Times and Time Zones

All times are in EDT time to prevent confusion due to time zone crossing. See the JST963 flight status page for this flight to view local times or setup timezone preferences in your user account.

Time Position Orientation Groundspeed Altitude Reporting Facility
EDT Latitude Longitude Course Direction KTS MPH feet Rate Location/Type
Fri 04:35:10 PM -16.8932 145.7561 43° Northeast 164 189 900  Level Aus ATC (RADAR)
Fri 04:36:22 PM -16.8650 145.7840 31° Northeast 188 216 3,200 1,835 Climbing FlightAware ADS-B
Fri 04:36:35 PM -16.8522 145.7817 31° Northeast 189 217 3,500 1,000 Climbing Aus ATC (RADAR)
Fri 04:36:52 PM -16.8370 145.7800 352° North 221 254 3,700 857 Climbing FlightAware ADS-B
Fri 04:37:17 PM -16.8090 145.7780 356° North 256 295 4,100 1,418 Climbing FlightAware ADS-B
Fri 04:37:47 PM -16.7720 145.7720 351° North 287 330 5,000 2,533 Climbing FlightAware ADS-B
Fri 04:38:02 PM -16.7540 145.7600 327° Northwest 286 329 6,000 3,600 Climbing FlightAware ADS-B
Fri 04:38:17 PM -16.7430 145.7430 304° West 280 322 6,800 2,632 Climbing FlightAware ADS-B
Fri 04:38:59 PM -16.7540 145.6930 304° West 280 322 8,500 2,512 Climbing FlightAware ADS-B
Fri 04:39:00 PM -16.7555 145.6888 304° West 280 322 8,600 1,800 Climbing Aus ATC (RADAR)
Fri 04:39:09 PM -16.7660 145.6850 213° Southwest 284 327 8,800 2,204 Climbing FlightAware ADS-B
Fri 04:39:49 PM -16.8160 145.6670 199° South 297 342 10,400 1,775 Climbing FlightAware ADS-B
Fri 04:40:20 PM -16.8590 145.6510 200° South 330 380 10,900 1,600 Climbing FlightAware ADS-B
Fri 04:41:04 PM -16.9290 145.6252 200° South 340 391 12,400 1,826 Climbing Aus ATC (RADAR)
Fri 04:41:06 PM -16.9260 145.6270 200° South 350 403 12,300 1,867 Descending FlightAware ADS-B
Fri 04:41:49 PM -16.9950 145.6010 200° South 361 415 13,800 2,000 Climbing FlightAware ADS-B
Fri 04:42:24 PM -17.0490 145.5820 199° South 367 422 14,900 1,875 Climbing FlightAware ADS-B
Fri 04:43:09 PM -17.1270 145.5550 198° South 373 429 16,300 1,733 Climbing FlightAware ADS-B
Fri 04:43:54 PM -17.2000 145.5290 199° South 383 441 17,500 1,694 Climbing FlightAware ADS-B
Fri 04:44:34 PM -17.2680 145.5050 199° South 384 442 18,700 1,425 Climbing FlightAware ADS-B
Fri 04:45:14 PM -17.3380 145.4800 199° South 399 459 19,400 1,113 Climbing FlightAware ADS-B
Fri 04:46:11 PM -17.4340 145.4460 199° South 410 472 20,500 1,294 Climbing FlightAware ADS-B
Fri 04:46:56 PM -17.5210 145.4160 198° South 415 478 21,600 1,310 Climbing FlightAware ADS-B
Fri 04:47:38 PM -17.5970 145.3880 198° South 422 486 22,400 1,256 Climbing FlightAware ADS-B
Fri 04:47:39 PM -17.6021 145.3872 198° South 415 478 22,500 1,350 Climbing Aus ATC (RADAR)
Fri 04:48:18 PM -17.6740 145.3610 198° South 422 486 23,300 1,367 Climbing FlightAware ADS-B
Fri 04:48:58 PM -17.7470 145.3350 199° South 419 482 24,300 1,129 Climbing FlightAware ADS-B
Fri 04:49:43 PM -17.8290 145.3060 199° South 427 491 24,900 776 Climbing FlightAware ADS-B
Fri 04:50:23 PM -17.9060 145.2790 198° South 437 503 25,400 741 Climbing FlightAware ADS-B
Fri 04:51:04 PM -17.9820 145.2520 199° South 444 511 25,900 776 Climbing FlightAware ADS-B
Fri 04:51:48 PM -18.0720 145.2200 199° South 450 518 26,500 1,000 Climbing FlightAware ADS-B
Fri 04:52:28 PM -18.1510 145.1910 199° South 451 519 27,300 1,105 Climbing FlightAware ADS-B
Fri 04:53:04 PM -18.2244 145.1647 199° South 450 518 27,900 933 Climbing Aus ATC (RADAR)
Fri 04:53:13 PM -18.2430 145.1580 199° South 454 522 28,000 857 Climbing FlightAware ADS-B
Fri 04:53:53 PM -18.3210 145.1310 198° South 455 524 28,600 847 Climbing FlightAware ADS-B
Fri 04:54:38 PM -18.4070 145.1000 199° South 457 526 29,200 975 Climbing FlightAware ADS-B
Fri 04:55:13 PM -18.4830 145.0730 199° South 453 521 29,900 1,350 Climbing FlightAware ADS-B
Fri 04:55:18 PM -18.4939 145.0680 199° South 452 520 30,100 800 Climbing Aus ATC (RADAR)
Fri 04:55:58 PM -18.5690 145.0420 199° South 455 524 30,500 771 Climbing FlightAware ADS-B
Fri 04:56:28 PM -18.6340 145.0177 199° South 456 525 31,000 800 Climbing Aus ATC (RADAR)
Fri 04:56:43 PM -18.6610 145.0080 199° South 457 526 31,100 873 Climbing FlightAware ADS-B
Fri 04:57:23 PM -18.7420 144.9790 199° South 456 525 31,800 988 Climbing FlightAware ADS-B
Fri 04:58:08 PM -18.8300 144.9480 198° South 454 522 32,500 825 Climbing FlightAware ADS-B
Fri 04:58:43 PM -18.9044 144.9205 198° South 454 522 32,900 600 Climbing Aus ATC (RADAR)
Fri 04:58:48 PM -18.9110 144.9180 198° South 462 532 32,900 667 Level FlightAware ADS-B
Fri 04:59:28 PM -18.9890 144.8900 199° South 463 533 33,400 825 Climbing FlightAware ADS-B
Fri 05:00:08 PM -19.0740 144.8600 198° South 458 527 34,000 568 Climbing FlightAware ADS-B
Fri 05:00:42 PM -19.1469 144.8326 198° South 457 526 34,100  Climbing Aus ATC (RADAR)
Fri 05:00:53 PM -19.1610 144.8280 198° South 459 528 34,000  Descending FlightAware ADS-B
Fri 05:01:47 PM -19.2777 144.7853 198° South 458 527 34,100  Climbing Aus ATC (RADAR)
Fri 05:01:48 PM -19.2690 144.7890 198° South 461 531 34,000 -136 Descending FlightAware ADS-B
Fri 05:02:31 PM -19.3600 144.7560 198° South 462 532 34,000 136 Level FlightAware ADS-B
Fri 05:02:32 PM -19.3686 144.7525 198° South 458 527 34,100 167 Climbing Aus ATC (RADAR)
Fri 05:03:07 PM -19.4388 144.7266 198° South 460 529 34,100 -133 Level Aus ATC (RADAR)
Fri 05:03:17 PM -19.4530 144.7220 198° South 461 531 34,000 -136 Descending FlightAware ADS-B
Fri 05:03:51 PM -19.5200 144.6980 199° South 459 528 34,000  Level FlightAware ADS-B
Fri 05:04:33 PM -19.6090 144.6660 199° South 457 526 34,000 59 Level FlightAware ADS-B
Fri 05:05:32 PM -19.7289 144.6211 199° South 451 519 34,100  Climbing Aus ATC (RADAR)
Fri 05:05:33 PM -19.7290 144.6220 199° South 452 520 34,000  Descending FlightAware ADS-B
Fri 05:06:07 PM -19.7982 144.5957 199° South 449 517 34,100  Climbing Aus ATC (RADAR)
Fri 05:06:18 PM -19.8170 144.5900 199° South 448 516 34,000 -118 Descending FlightAware ADS-B
Fri 05:06:58 PM -19.8890 144.5640 199° South 447 514 34,000  Level FlightAware ADS-B
Fri 05:07:40 PM -19.9770 144.5310 199° South 445 512 34,000  Level FlightAware ADS-B
Fri 05:08:22 PM -20.0600 144.5010 199° South 444 511 34,000  Level FlightAware ADS-B
Fri 05:09:02 PM -20.1380 144.4720 199° South 442 509 34,000 133 Level FlightAware ADS-B
Fri 05:09:07 PM -20.1494 144.4678 199° South 439 505 34,100 171 Climbing Aus ATC (RADAR)
Fri 05:09:37 PM -20.2071 144.4462 199° South 438 504 34,100 -143 Level Aus ATC (RADAR)
Fri 05:09:49 PM -20.2290 144.4390 199° South 440 506 34,000 -118 Descending FlightAware ADS-B
Fri 05:10:28 PM -20.3030 144.4120 199° South 439 505 34,000  Level FlightAware ADS-B
Fri 05:11:05 PM -20.3750 144.3860 199° South 439 505 34,000 68 Level FlightAware ADS-B
Fri 05:11:56 PM -20.4766 144.3470 199° South 438 504 34,100  Climbing Aus ATC (RADAR)
Fri 05:11:56 PM -20.4730 144.3490 199° South 441 507 34,000  Descending FlightAware ADS-B
Fri 05:12:36 PM -20.5543 144.3188 199° South 438 504 34,100  Climbing Aus ATC (RADAR)
Fri 05:12:36 PM -20.5490 144.3210 199° South 442 509 34,000  Descending FlightAware ADS-B
Fri 05:13:06 PM -20.6124 144.2975 199° South 438 504 34,100  Climbing Aus ATC (RADAR)
Fri 05:13:34 PM -20.6650 144.2790 199° South 442 509 34,000 -91 Descending FlightAware ADS-B
Fri 05:14:12 PM -20.7370 144.2520 199° South 441 507 34,000  Level FlightAware ADS-B
Fri 05:14:54 PM -20.8190 144.2230 199° South 445 512 34,000 136 Level FlightAware ADS-B
Fri 05:14:56 PM -20.8257 144.2201 199° South 437 503 34,100  Climbing Aus ATC (RADAR)
Fri 05:15:49 PM -20.9310 144.1980 199° South 449 517 34,000  Descending FlightAware ADS-B
Fri 05:15:51 PM -20.9380 144.1959 199° South 447 514 34,100  Climbing Aus ATC (RADAR)
Fri 05:16:33 PM -21.0210 144.1780 192° South 449 517 34,000  Descending FlightAware ADS-B
Fri 05:17:11 PM -21.1008 144.1595 192° South 443 510 34,100  Climbing Aus ATC (RADAR)
Fri 05:17:15 PM -21.1080 144.1580 192° South 450 518 34,000  Descending FlightAware ADS-B
Fri 05:17:51 PM -21.1822 144.1406 192° South 448 516 34,100  Climbing Aus ATC (RADAR)
Fri 05:17:57 PM -21.1940 144.1390 192° South 451 519 34,000 -125 Descending FlightAware ADS-B
Fri 05:18:39 PM -21.2780 144.1210 191° South 450 518 34,000  Level FlightAware ADS-B
Fri 05:19:23 PM -21.3680 144.1010 192° South 449 517 34,000  Level FlightAware ADS-B
Fri 05:19:59 PM -21.4430 144.0840 192° South 448 516 34,000 65 Level FlightAware ADS-B
Fri 05:20:56 PM -21.5600 144.0582 192° South 448 516 34,100  Climbing Aus ATC (RADAR)
Fri 05:20:59 PM -21.5650 144.0570 192° South 444 511 34,000  Descending FlightAware ADS-B
Fri 05:21:31 PM -21.6284 144.0404 192° South 439 505 34,100  Climbing Aus ATC (RADAR)
Fri 05:21:43 PM -21.6510 144.0370 192° South 442 509 34,000 -111 Descending FlightAware ADS-B
Fri 05:22:25 PM -21.7380 144.0180 191° South 442 509 34,000  Level FlightAware ADS-B
Fri 05:23:05 PM -21.8170 144.0000 192° South 442 509 34,000  Level FlightAware ADS-B
Fri 05:23:47 PM -21.9020 143.9810 192° South 443 510 34,000 267 Level FlightAware ADS-B
Fri 05:23:50 PM -21.9091 143.9774 192° South 440 506 34,200 279 Climbing Aus ATC (RADAR)
Fri 05:24:30 PM -21.9895 143.9593 192° South 442 509 34,200 -293 Level Aus ATC (RADAR)
Fri 05:24:31 PM -21.9890 143.9620 192° South 443 510 34,000 -250 Descending FlightAware ADS-B
Fri 05:25:18 PM -22.0830 143.9400 192° South 444 511 34,000  Level FlightAware ADS-B
Fri 05:26:02 PM -22.1730 143.9200 192° South 444 511 34,000 138 Level FlightAware ADS-B
Fri 05:26:45 PM -22.2608 143.8977 192° South 444 511 34,200  Climbing Aus ATC (RADAR)
Fri 05:26:47 PM -22.2620 143.9000 192° South 443 510 34,000  Descending FlightAware ADS-B
Fri 05:27:20 PM -22.3329 143.8837 192° South 447 514 34,200  Climbing Aus ATC (RADAR)
Fri 05:27:33 PM -22.3570 143.8790 192° South 443 510 34,000 -235 Descending FlightAware ADS-B
Fri 05:28:11 PM -22.4300 143.8620 192° South 443 510 34,000  Level FlightAware ADS-B
Fri 05:28:55 PM -22.5220 143.8410 192° South 444 511 34,000  Level FlightAware ADS-B
Fri 05:29:39 PM -22.6120 143.8210 192° South 445 512 34,000 267 Level FlightAware ADS-B
Fri 05:29:40 PM -22.6170 143.8230 192° South 448 516 34,200 333 Climbing Aus ATC (RADAR)
Fri 05:30:15 PM -22.6874 143.8070 192° South 446 513 34,200 -255 Level Aus ATC (RADAR)
Fri 05:30:27 PM -22.7100 143.7990 192° South 444 511 34,000 -207 Descending FlightAware ADS-B
Fri 05:31:13 PM -22.8010 143.7780 192° South 443 510 34,000  Level FlightAware ADS-B
Fri 05:31:59 PM -22.8940 143.7570 192° South 441 507 34,000  Level FlightAware ADS-B
Fri 05:32:40 PM -22.9740 143.7390 192° South 440 506 34,000  Level FlightAware ADS-B
Fri 05:33:21 PM -23.0560 143.7200 192° South 439 505 34,000  Level FlightAware ADS-B
Fri 05:34:05 PM -23.1430 143.7000 192° South 438 504 34,000  Level FlightAware ADS-B
Fri 05:34:43 PM -23.2200 143.6830 191° South 437 503 34,000  Level FlightAware ADS-B
Fri 05:35:34 PM -23.3022 143.6651 194° South 34,000  Level Aus ATC (Calculated)
Fri 05:35:36 PM -23.3240 143.6590 192° South 437 503 34,000  Level FlightAware ADS-B
Fri 05:36:23 PM -23.4200 143.6370 192° South 437 503 34,000  Level FlightAware ADS-B
Fri 05:37:07 PM -23.5060 143.6170 192° South 435 501 34,000  Level FlightAware ADS-B
Fri 05:37:43 PM -23.5760 143.6010 192° South 434 499 34,000  Level FlightAware ADS-B
Fri 05:38:31 PM -23.6700 143.5800 192° South 432 497 34,000  Level FlightAware ADS-B
Fri 05:39:11 PM -23.7500 143.5610 192° South 431 496 34,000  Level FlightAware ADS-B
Fri 05:39:52 PM -23.8280 143.5430 192° South 430 495 34,000  Level FlightAware ADS-B
Fri 05:40:29 PM -23.9010 143.5260 192° South 430 495 34,000  Level FlightAware ADS-B
Fri 05:40:33 PM -23.9607 143.5125 192° South 34,000  Level Aus ATC (Calculated)
Fri 05:41:13 PM -23.9880 143.5060 192° South 429 494 34,000  Level FlightAware ADS-B
Fri 05:42:01 PM -24.0810 143.4850 192° South 429 494 34,000  Level FlightAware ADS-B
Fri 05:42:39 PM -24.1550 143.4670 193° South 429 494 34,000  Level FlightAware ADS-B
Fri 05:43:21 PM -24.2350 143.4480 192° South 427 491 34,000  Level FlightAware ADS-B
Fri 05:43:33 PM -24.2848 143.3568 120° Southeast 34,000  Level Aus ATC (Calculated)
Fri 05:44:04 PM -24.3150 143.4150 192° South 416 479 34,000  Level FlightAware ADS-B
Fri 05:44:48 PM -24.4316 143.2860 65° Northeast 34,000  Level Aus ATC (Calculated)
Fri 05:44:49 PM -24.3940 143.3750 205° Southwest 415 478 34,000 632 Level FlightAware ADS-B
Fri 05:45:26 PM -24.4570 143.3440 205° Southwest 415 478 34,400 929 Climbing FlightAware ADS-B
Fri 05:46:13 PM -24.5410 143.3010 205° Southwest 408 470 35,300 897 Climbing FlightAware ADS-B
Fri 05:46:53 PM -24.6090 143.2670 204° Southwest 408 470 35,700 512 Climbing FlightAware ADS-B
Fri 05:47:28 PM -24.7114 143.1505 68° East 34,000 429 Descending Aus ATC (Calculated)
Fri 05:47:35 PM -24.6820 143.2290 205° Southwest 406 467 36,000 2,400 Climbing FlightAware ADS-B
Fri 05:48:18 PM -24.7540 143.1930 205° Southwest 407 468 36,000  Level FlightAware ADS-B
Fri 05:49:01 PM -24.8270 143.1550 205° Southwest 410 472 36,000  Level FlightAware ADS-B
Fri 05:49:40 PM -24.8960 143.1210 205° Southwest 408 470 36,000  Level FlightAware ADS-B
Fri 05:49:42 PM -24.9596 143.0298 89° East 34,000  Descending Aus ATC (Calculated)
Fri 05:49:42 PM -24.9596 143.0298 89° East 34,000 3,429 Level Aus ATC (Calculated)
Fri 05:50:17 PM -24.9590 143.0880 205° Southwest 407 468 36,000 1,412 Climbing FlightAware ADS-B
Fri 05:51:07 PM -25.0450 143.0440 205° Southwest 406 467 36,000  Level FlightAware ADS-B
Fri 05:51:45 PM -25.1090 143.0120 204° Southwest 407 468 36,000  Level FlightAware ADS-B
Fri 05:52:29 PM -25.1850 142.9720 205° Southwest 410 472 36,000  Level FlightAware ADS-B
Fri 05:53:13 PM -25.2620 142.9330 205° Southwest 411 473 36,000  Level FlightAware ADS-B
Fri 05:53:49 PM -25.3220 142.9020 205° Southwest 410 472 36,000 73 Level FlightAware ADS-B
Fri 05:54:35 PM -25.4010 142.8620 205° Southwest 409 471 36,100  Climbing FlightAware ADS-B
Fri 05:54:42 PM -25.4962 142.7669 61° Northeast 34,000 -167 Descending Aus ATC (Calculated)
Fri 05:55:11 PM -25.4640 142.8300 205° Southwest 407 468 36,000 1,600 Climbing FlightAware ADS-B
Fri 05:55:57 PM -25.5420 142.7890 205° Southwest 403 464 36,000  Level FlightAware ADS-B
Fri 05:56:43 PM -25.6200 142.7490 205° Southwest 401 461 36,000  Level FlightAware ADS-B
Fri 05:57:21 PM -25.6840 142.7160 205° Southwest 400 460 36,000  Level FlightAware ADS-B
Fri 05:58:08 PM -25.7600 142.6760 205° Southwest 401 461 36,000  Level FlightAware ADS-B
Fri 05:58:47 PM -25.8280 142.6410 205° Southwest 403 464 36,000  Level FlightAware ADS-B
Fri 05:59:13 PM -25.8730 142.6180 205° Southwest 403 464 36,000  Level FlightAware ADS-B
Fri 05:59:41 PM -26.0347 142.5005 39° Northeast 34,000  Descending Aus ATC (Calculated)
Fri 05:59:57 PM -25.9470 142.5790 205° Southwest 404 465 36,000 1,714 Climbing FlightAware ADS-B
Fri 06:00:51 PM -26.0400 142.5310 205° Southwest 402 463 36,000  Level FlightAware ADS-B
Fri 06:01:37 PM -26.1150 142.4920 205° Southwest 402 463 36,000  Level FlightAware ADS-B
Fri 06:02:15 PM -26.1800 142.4580 205° Southwest 403 464 36,000  Level FlightAware ADS-B
Fri 06:02:59 PM -26.2530 142.4200 205° Southwest 403 464 36,000  Level FlightAware ADS-B
Fri 06:03:28 PM -26.4643 142.2859 32° Northeast 34,000  Descending Aus ATC (Calculated)
Fri 06:03:41 PM -26.3250 142.3820 205° Southwest 404 465 36,000 2,182 Climbing FlightAware ADS-B
Fri 06:04:23 PM -26.3960 142.3450 205° Southwest 404 465 36,000  Level FlightAware ADS-B
Fri 06:04:49 PM -26.5824 142.2267 32° Northeast 34,000  Descending Aus ATC (Calculated)
Fri 06:05:04 PM -26.4620 142.3100 205° Southwest 404 465 36,000 2,222 Climbing FlightAware ADS-B
Fri 06:05:43 PM -26.5320 142.2740 205° Southwest 404 465 36,000  Level FlightAware ADS-B
Fri 06:06:31 PM -26.6120 142.2320 205° Southwest 406 467 36,000  Level FlightAware ADS-B
Fri 06:07:11 PM -26.6810 142.1950 206° Southwest 405 466 36,000  Level FlightAware ADS-B
Fri 06:08:09 PM -26.7680 142.1500 205° Southwest 405 466 36,000  Level FlightAware ADS-B
Fri 06:08:45 PM -26.8430 142.1100 205° Southwest 403 464 36,000  Level FlightAware ADS-B
Fri 06:09:24 PM -26.8990 142.0800 206° Southwest 403 464 36,000  Level FlightAware ADS-B
Fri 06:09:40 PM -27.0471 141.9921 32° Northeast 34,000  Descending Aus ATC (Calculated)
Fri 06:10:15 PM -26.9930 142.0300 206° Southwest 400 460 36,000 1,690 Climbing FlightAware ADS-B
Fri 06:10:51 PM -27.0530 141.9980 205° Southwest 400 460 36,000  Level FlightAware ADS-B
Fri 06:11:44 PM -27.1340 141.9560 205° Southwest 399 459 36,000  Level FlightAware ADS-B
Fri 06:12:22 PM -27.1700 141.9370 205° Southwest 399 459 36,000  Level FlightAware ADS-B
Fri 06:13:10 PM -27.2380 141.9010 205° Southwest 399 459 36,000  Level FlightAware ADS-B
Fri 06:13:47 PM -27.2900 141.8730 206° Southwest 399 459 36,000  Level FlightAware ADS-B
Fri 06:14:25 PM -27.5683 141.7406 22° Northeast 12,400  Descending Aus ATC (Calculated)
Fri 06:14:35 PM -27.3590 141.8370 206° Southwest 399 459 36,000 2,248 Climbing FlightAware ADS-B
Fri 06:17:00 PM -27.6092 141.7233 201° Southwest  Level FlightAware Approximate
Fri 06:17:51 PM -27.9414 141.5818 201° Southwest 12,400  Level Aus ATC (Calculated)
Fri 06:18:00 PM -27.7138 141.6788 201° Southwest  Level FlightAware Approximate
Fri 06:18:33 PM -27.9947 141.5591 201° Southwest 12,400  Level Aus ATC (Calculated)
Fri 06:19:58 PM -28.1545 141.4907 201° Southwest 12,400 3,707 Level Aus ATC (Calculated)
Fri 06:20:00 PM -28.1454 141.4946 201° Southwest  Level FlightAware Approximate
Fri 06:21:00 PM -28.2625 141.4443 201° Southwest  Level FlightAware Approximate
Fri 06:21:23 PM -28.3143 141.4220 201° Southwest 12,400  Level Aus ATC (Calculated)
Fri 06:23:00 PM -28.4832 141.3492 201° Southwest  Level FlightAware Approximate
Fri 06:24:00 PM -28.5877 141.3041 201° Southwest  Level FlightAware Approximate
Fri 06:24:52 PM -28.6338 141.2841 21° North 12,400  Level Aus ATC (Calculated)
Fri 06:24:55 PM -28.5020 141.3420 201° Southwest 407 468 36,000 6,183 Climbing FlightAware ADS-B
Fri 06:25:00 PM -28.6922 141.2588 201° Southwest  Level FlightAware Approximate
Fri 06:27:00 PM -28.8566 141.1874 201° Southwest  Level FlightAware Approximate
Fri 06:28:00 PM -28.9610 141.1420 201° Southwest  Level FlightAware Approximate
Fri 06:28:41 PM -28.8640 141.1850 201° Southwest 408 470 36,000  Level FlightAware ADS-B
Fri 06:29:16 PM -28.9630 141.1420 201° Southwest 409 471 36,000  Level FlightAware ADS-B
Fri 06:29:52 PM -29.1659 141.0525 21° North 12,400  Descending Aus ATC (Calculated)
Fri 06:30:05 PM -29.0660 141.0970 201° Southwest 411 473 36,000 22,125 Climbing FlightAware ADS-B
Fri 06:30:56 PM -29.1430 141.0640 201° Southwest 411 473 36,000  Level FlightAware ADS-B
Fri 06:31:44 PM -29.2160 141.0330 200° South 411 473 36,000  Level FlightAware ADS-B
Fri 06:32:40 PM -29.3380 140.9780 201° Southwest 404 465 36,000  Level FlightAware ADS-B
Fri 06:33:20 PM -29.4110 140.9460 201° Southwest 402 463 36,000  Level FlightAware ADS-B
Fri 06:34:04 PM -29.4870 140.9120 201° Southwest 401 461 36,000  Level FlightAware ADS-B
Fri 06:34:52 PM -29.6975 140.8184 21° North 12,400  Descending Aus ATC (Calculated)
Fri 06:34:57 PM -29.5700 140.8750 201° Southwest 398 458 36,000 30,783 Climbing FlightAware ADS-B
Fri 06:35:38 PM -29.6490 140.8400 201° Southwest 393 452 36,000  Level FlightAware ADS-B
Fri 06:36:49 PM -29.7530 140.7940 201° Southwest 392 451 36,000  Level FlightAware ADS-B
Fri 06:37:27 PM -29.9631 140.7005 21° North 12,400  Descending Aus ATC (Calculated)
Fri 06:37:29 PM -29.8340 140.7580 201° Southwest 389 448 36,000 28,898 Climbing FlightAware ADS-B
Fri 06:38:16 PM -29.9140 140.7230 201° Southwest 391 450 36,000  Level FlightAware ADS-B
Fri 06:38:24 PM -30.0694 140.6531 22° Northeast 12,400  Descending Aus ATC (Calculated)
Fri 06:39:10 PM -29.9960 140.6870 201° Southwest 392 451 36,000 17,268 Climbing FlightAware ADS-B
Fri 06:39:24 PM -30.1756 140.6057 22° Northeast 12,400  Descending Aus ATC (Calculated)
Fri 06:39:46 PM -30.0650 140.6560 201° Southwest 390 449 36,000 22,476 Climbing FlightAware ADS-B
Fri 06:39:51 PM -30.2287 140.5819 21° North 12,400  Descending Aus ATC (Calculated)
Fri 06:40:27 PM -30.1260 140.6280 201° Southwest 390 449 36,000 17,268 Climbing FlightAware ADS-B
Fri 06:41:13 PM -30.1920 140.5990 201° Southwest 390 449 36,000  Level FlightAware ADS-B
Fri 06:42:01 PM -30.2610 140.5690 201° Southwest 390 449 36,000  Level FlightAware ADS-B
Fri 06:42:39 PM -30.3150 140.5440 202° Southwest 390 449 36,000  Level FlightAware ADS-B
Fri 06:43:29 PM -30.3870 140.5130 200° South 390 449 36,000  Level FlightAware ADS-B
Fri 06:44:18 PM -30.4570 140.4810 202° Southwest 390 449 36,000  Level FlightAware ADS-B
Fri 06:44:21 PM -30.7063 140.3669 22° Northeast 12,400  Descending Aus ATC (Calculated)
Fri 06:44:50 PM -30.7593 140.3428 22° Northeast 12,400 42,909 Level Aus ATC (Calculated)
Fri 06:44:54 PM -30.5090 140.4580 202° Southwest 390 449 36,000 5,187 Climbing FlightAware ADS-B
Fri 06:45:30 PM -30.8124 140.3188 199° South 12,400  Descending Aus ATC (Calculated)
Fri 06:48:00 PM -31.0711 140.2010 201° Southwest  Level FlightAware Approximate
Fri 06:49:00 PM -31.1746 140.1538 201° Southwest  Level FlightAware Approximate
Fri 06:49:23 PM -30.8940 140.2860 201° Southwest 390 449 36,000  Level FlightAware ADS-B
Fri 06:50:36 PM -31.1634 140.1609 201° Southwest 393 452 36,500 278 Climbing Aus ATC (RADAR)
Fri 06:51:11 PM -31.2247 140.1354 200° South 400 460 36,500  Level Aus ATC (RADAR)
Fri 06:51:46 PM -31.2834 140.1026 206° Southwest 400 460 36,500  Level Aus ATC (RADAR)
Fri 06:52:06 PM -31.3180 140.0890 206° Southwest 36,000  Descending FlightAware ADS-B
Fri 06:52:51 PM -31.3957 140.0501 206° Southwest 402 463 36,500  Climbing Aus ATC (RADAR)
Fri 06:52:56 PM -31.3930 140.0550 206° Southwest 402 463 36,000  Descending FlightAware ADS-B
Fri 06:53:26 PM -31.4571 140.0256 206° Southwest 401 461 36,500  Climbing Aus ATC (RADAR)
Fri 06:53:36 PM -31.4520 140.0280 206° Southwest 402 463 36,000 -652 Descending FlightAware ADS-B
Fri 06:54:12 PM -31.5050 140.0040 201° Southwest 402 463 36,000  Level FlightAware ADS-B
Fri 06:55:00 PM -31.5760 139.9720 201° Southwest 402 463 36,000 303 Level FlightAware ADS-B
Fri 06:55:51 PM -31.7076 139.9049 201° Southwest 405 466 36,500 300 Climbing Aus ATC (RADAR)
Fri 06:56:40 PM -31.7961 139.8668 200° South 408 470 36,500  Level Aus ATC (RADAR)
Fri 06:57:25 PM -31.8748 139.8288 202° Southwest 408 470 36,500  Level Aus ATC (RADAR)
Fri 06:58:00 PM -31.9360 139.7993 202° Southwest 407 468 36,500 -417 Level Aus ATC (RADAR)
Fri 06:58:37 PM -31.9970 139.7750 200° South 405 466 36,000  Descending FlightAware ADS-B
Fri 06:58:40 PM -32.0066 139.7693 200° South 407 468 36,500 632 Climbing Aus ATC (RADAR)
Fri 06:59:15 PM -32.0672 139.7416 200° South 403 464 36,400 -682 Descending Aus ATC (RADAR)
Fri 06:59:24 PM -32.0790 139.7360 200° South 397 457 36,000 92 Descending FlightAware ADS-B
Fri 07:00:20 PM -32.1806 139.6872 200° South 406 467 36,500 313 Climbing Aus ATC (RADAR)
Fri 07:01:00 PM -32.2509 139.6559 201° Southwest 406 467 36,500 -556 Level Aus ATC (RADAR)
Fri 07:01:14 PM -32.2760 139.6440 201° Southwest 398 458 36,000  Descending FlightAware ADS-B
Fri 07:02:10 PM -32.3726 139.5969 201° Southwest 407 468 36,500  Climbing Aus ATC (RADAR)
Fri 07:02:34 PM -32.4140 139.5790 201° Southwest 399 459 36,000  Descending FlightAware ADS-B
Fri 07:03:05 PM -32.4686 139.5509 201° Southwest 408 470 36,500 423 Climbing Aus ATC (RADAR)
Fri 07:03:45 PM -32.5393 139.5208 200° South 406 467 36,500 -405 Level Aus ATC (RADAR)
Fri 07:04:19 PM -32.5990 139.4920 203° Southwest 402 463 36,000  Descending FlightAware ADS-B
Fri 07:04:20 PM -32.5999 139.4902 203° Southwest 410 472 36,500 857 Climbing Aus ATC (RADAR)
Fri 07:04:54 PM -32.6616 139.4608 203° Southwest 412 474 36,500 -769 Level Aus ATC (RADAR)
Fri 07:04:59 PM -32.6680 139.4590 203° Southwest 404 465 36,000  Descending FlightAware ADS-B
Fri 07:05:30 PM -32.7233 139.4302 203° Southwest 414 476 36,500  Climbing Aus ATC (RADAR)
Fri 07:05:44 PM -32.7490 139.4210 203° Southwest 413 475 36,000 -556 Descending FlightAware ADS-B
Fri 07:06:24 PM -32.8200 139.3870 202° Southwest 413 475 36,000 400 Level FlightAware ADS-B
Fri 07:06:59 PM -32.8836 139.3561 202° Southwest 414 476 36,500  Climbing Aus ATC (RADAR)
Fri 07:07:04 PM -32.8920 139.3530 202° Southwest 413 475 36,000 -667 Descending FlightAware ADS-B
Fri 07:07:44 PM -32.9620 139.3200 202° Southwest 410 472 36,000  Level FlightAware ADS-B
Fri 07:08:29 PM -33.0480 139.2920 195° South 413 475 36,000 353 Level FlightAware ADS-B
Fri 07:09:09 PM -33.1238 139.2675 195° South 423 487 36,500 -133 Climbing Aus ATC (RADAR)
Fri 07:09:14 PM -33.1320 139.2650 195° South 420 483 35,900 -1,886 Descending FlightAware ADS-B
Fri 07:09:44 PM -33.1893 139.2453 195° South 422 486 35,400 -2,250 Descending Aus ATC (RADAR)
Fri 07:09:54 PM -33.2050 139.2410 195° South 415 478 34,400 -2,657 Descending FlightAware ADS-B
Fri 07:10:54 PM -33.3225 139.2021 195° South 426 490 32,300 -2,492 Descending Aus ATC (RADAR)
Fri 07:10:59 PM -33.3330 139.1990 195° South 419 482 31,700 -2,640 Descending FlightAware ADS-B
Fri 07:11:44 PM -33.4157 139.1710 195° South 422 486 30,100 -2,426 Descending Aus ATC (RADAR)
Fri 07:11:46 PM -33.4150 139.1730 195° South 419 482 29,800 -1,200 Descending FlightAware ADS-B
Fri 07:12:19 PM -33.4789 139.1511 195° South 405 466 29,400 -1,650 Descending Aus ATC (RADAR)
Fri 07:12:26 PM -33.4860 139.1490 195° South 400 460 28,700 -2,423 Descending FlightAware ADS-B
Fri 07:13:11 PM -33.5670 139.1230 195° South 385 443 27,300 -1,976 Descending FlightAware ADS-B
Fri 07:13:51 PM -33.6320 139.1010 196° South 373 429 25,900 -1,957 Descending FlightAware ADS-B
Fri 07:14:43 PM -33.7251 139.0700 196° South 375 432 24,300 -2,400 Descending Aus ATC (RADAR)
Fri 07:14:46 PM -33.7280 139.0700 196° South 370 426 23,700 -2,267 Descending FlightAware ADS-B
Fri 07:15:28 PM -33.7989 139.0456 196° South 368 423 22,600 -2,100 Descending Aus ATC (RADAR)
Fri 07:15:46 PM -33.8230 139.0380 196° South 362 417 21,600 -2,276 Descending FlightAware ADS-B
Fri 07:16:26 PM -33.8870 139.0170 195° South 353 406 20,400 -1,906 Descending FlightAware ADS-B
Fri 07:17:11 PM -33.9550 138.9940 196° South 345 397 18,900 -1,636 Descending FlightAware ADS-B
Fri 07:17:43 PM -34.0096 138.9758 196° South 340 391 18,300 -1,950 Descending Aus ATC (RADAR)
Fri 07:17:51 PM -34.0190 138.9730 196° South 336 387 17,600 -2,625 Descending FlightAware ADS-B
Fri 07:18:31 PM -34.0810 138.9530 195° South 333 383 16,200 -2,024 Descending FlightAware ADS-B
Fri 07:19:14 PM -34.1420 138.9320 196° South 316 364 14,800 -1,909 Descending FlightAware ADS-B
Fri 07:19:59 PM -34.2080 138.9100 195° South 317 365 13,400 -1,595 Descending FlightAware ADS-B
Fri 07:20:33 PM -34.2566 138.8938 195° South 316 364 12,700 -2,049 Descending Aus ATC (RADAR)
Fri 07:20:40 PM -34.2630 138.8920 195° South 317 365 12,000 -2,520 Descending FlightAware ADS-B
Fri 07:21:23 PM -34.3260 138.8710 195° South 301 346 10,600 -1,091 Descending FlightAware ADS-B
Fri 07:21:57 PM -34.3735 138.8544 195° South 300 345 10,600 -878 Level Aus ATC (RADAR)
Fri 07:22:04 PM -34.3810 138.8520 195° South 284 327 10,000 -1,742 Descending FlightAware ADS-B
Fri 07:22:28 PM -34.4110 138.8420 195° South 271 312 9,700 -1,200 Descending FlightAware ADS-B
Fri 07:22:59 PM -34.4460 138.8300 196° South 266 306 8,900 -1,475 Descending FlightAware ADS-B
Fri 07:23:29 PM -34.4820 138.8180 195° South 255 293 8,200 -1,527 Descending FlightAware ADS-B
Fri 07:23:54 PM -34.5110 138.8080 196° South 255 293 7,500 -1,527 Descending FlightAware ADS-B
Fri 07:24:24 PM -34.5460 138.7960 196° South 248 285 6,800 -1,350 Descending FlightAware ADS-B
Fri 07:24:34 PM -34.5570 138.7920 197° South 253 291 6,600 -1,371 Descending FlightAware ADS-B
Fri 07:24:59 PM -34.5850 138.7830 195° South 253 291 6,000 -1,527 Descending FlightAware ADS-B
Fri 07:25:29 PM -34.6160 138.7730 195° South 254 292 5,200 -1,400 Descending FlightAware ADS-B
Fri 07:25:59 PM -34.6540 138.7600 195° South 237 273 4,600 -364 Descending FlightAware ADS-B
Fri 07:26:02 PM -34.6587 138.7580 195° South 250 288 5,000 -462 Climbing Aus ATC (RADAR)
Fri 07:26:25 PM -34.6810 138.7510 195° South 219 252 4,400 -400 Descending FlightAware ADS-B
Fri 07:26:32 PM -34.6896 138.7475 195° South 233 268 4,800 -600 Climbing Aus ATC (RADAR)
Fri 07:26:55 PM -34.7110 138.7410 195° South 203 234 4,100 -1,154 Descending FlightAware ADS-B
Fri 07:27:24 PM -34.7370 138.7320 196° South 199 229 3,800 -600 Descending FlightAware ADS-B
Fri 07:27:35 PM -34.7460 138.7290 195° South 187 215 3,700 -732 Descending FlightAware ADS-B
Fri 07:28:05 PM -34.7720 138.7200 196° South 185 213 3,300 -712 Descending FlightAware ADS-B
Fri 07:28:34 PM -34.7960 138.7110 197° South 187 215 3,000 -655 Descending FlightAware ADS-B
Fri 07:29:00 PM -34.8190 138.7040 194° South 170 196 2,700 -522 Descending FlightAware ADS-B
Fri 07:29:20 PM -34.8340 138.6960 204° Southwest 171 197 2,600 -200 Descending FlightAware ADS-B
Fri 07:29:30 PM -34.8390 138.6890 229° Southwest 166 191 2,600 -450 Level FlightAware ADS-B
Fri 07:30:00 PM -34.8530 138.6700 228° Southwest 152 175 2,300 -764 Descending FlightAware ADS-B
Fri 07:30:25 PM -34.8650 138.6540 228° Southwest 149 171 1,900 -900 Descending FlightAware ADS-B
Fri 07:30:40 PM -34.8720 138.6440 230° Southwest 142 163 1,700 -769 Descending FlightAware ADS-B
Fri 07:31:04 PM -34.8820 138.6290 231° Southwest 132 152 1,400 -800 Descending FlightAware ADS-B
Fri 07:31:40 PM -34.8970 138.6070 230° Southwest 129 148 900 -750 Descending FlightAware ADS-B
Fri 07:32:00 PM -34.9040 138.5960 232° Southwest 134 154 700 -655 Descending FlightAware ADS-B
Fri 07:32:35 PM -34.9190 138.5750 229° Southwest 134 154 300 -686 Descending FlightAware ADS-B
Fri 07:33:00 PM -34.9290 138.5610 229° Southwest 136 157 -720 Descending FlightAware ADS-B
Fri 07:33:24 PM -34.9390 138.5460 231° Southwest 137 158  Level FlightAware ADS-B
Fri 07:34:04 PM -34.9520 138.5270 230° Southwest 46 53  Level FlightAware ADS-B
Fri 07:34:25 PM -34.9520 138.5260 270° West 15 17  Level FlightAware ADS-B

Login

Don't have an account? Register now (free) for customized features, flight alerts, and more!